Greeley, CO

4:03 AM MST on February 14, 2016 (GMT -0700)
Ross Hall - UNC | | Change Station
CLOSE
Current Station
Personal Weather Station
Location: Greeley, CO
Elevation: 4790 ft
Nearby Weather Stations

Elev 4790 ft 40.40 °N, 104.70 °W | Updated 8 seconds ago

Mostly Cloudy
Mostly Cloudy
31.0 °F
Feels Like 25 °F
N
6.0
Wind Variable Wind from SSE
Gusts 7.0 mph

Today
High -- | Low -- °F
--% Chance of Precip.
Yesterday
High -- | Low -- °F
Precip. -- in
Pressure 29.96 in
Visibility 10.0 miles
Clouds Clear
Windchill 25 °F
Dew Point 23 °F
Humidity 72%
Rainfall in
Snow Depth Not available.
6:54 AM 5:32 PM
Waxing Crescent, 40% visible
METAR KGXY 141055Z 19008KT 10SM CLR M01/M04 A2996 RMK AO1
Pressure 29.96 in
Visibility 10.0 miles
Clouds Clear
Windchill 25 °F
Dew Point 23 °F
Humidity 72%
Rainfall in
Snow Depth Not available.
6:54 AM 5:32 PM
Waxing Crescent, 40% visible
METAR KGXY 141055Z 19008KT 10SM CLR M01/M04 A2996 RMK AO1

10-Day Weather Forecast

Almanac

Astronomy

Feb. 14, 2016 Rise Set
Actual Time
Civil Twilight
Nautical Twilight
Astronomical Twilight
Moon
Length of Visible Light
Length of Day
Tomorrow will be .
, % of the Moon is Illuminated

Today's Extremes

State Highs State Lows

Community

WunderPhotos

Upload Photos

1,892,765 photos uploaded!

WunderBlog® & News

Nearby

Air Quality

  Air Quality AQ Index Pollutant
Not available.

Snow Depth

Station Depth Elevation

Earthquake Activity

City Distance Mag. Time & Date
Minimum magnitude displayed is 2.5.

Coastal Water Temperatures

Place Temperature

Stations

Nearby Weather Stations

Station Location Temp. Windchill Dew Point Humidity Wind Precip. Elev Updated Type
                   

Watches & Warnings

There are currently no watches in effect.